Time;durP1;ratioP1;P1;durP2;ratioP2;P2;SDS_P1;SDS_P2;PMS_P1;PMS_P2;Temp;Humidity;BMP_temperature;BMP_pressure;BME280_temperature;BME280_humidity;BME280_pressure;Samples;Min_cycle;Max_cycle;Signal;HPM_P1;HPM_P2
2022/04/16 00:00:52;;;;;;;7.53;3.90;;;;;;;;;;6320699;22;20161;-87
2022/04/16 00:03:57;;;;;;;8.93;3.83;;;;;;;;;;6303413;22;20169;-88
2022/04/16 00:07:03;;;;;;;10.30;4.40;;;;;;;;;;6318877;22;20627;-88
2022/04/16 00:10:09;;;;;;;8.73;4.00;;;;;;;;;;6319697;22;20145;-87
2022/04/16 00:13:16;;;;;;;10.53;4.17;;;;;;;;;;6299724;22;20227;-88
2022/04/16 00:16:22;;;;;;;9.83;4.03;;;;;;;;;;6319491;22;20173;-89
2022/04/16 00:19:27;;;;;;;12.70;4.47;;;;;;;;;;6321894;22;20259;-88
2022/04/16 00:22:32;;;;;;;15.80;5.43;;;;;;;;;;6320256;22;20164;-88
2022/04/16 00:25:37;;;;;;;7.83;4.13;;;;;;;;;;6318383;22;20231;-87
2022/04/16 00:28:44;;;;;;;8.90;3.87;;;;;;;;;;6301648;22;20176;-86
2022/04/16 00:31:51;;;;;;;9.43;4.60;;;;;;;;;;6319393;22;20192;-86
2022/04/16 00:34:56;;;;;;;9.03;4.10;;;;;;;;;;6303361;22;20243;-88
2022/04/16 00:38:01;;;;;;;9.53;4.27;;;;;;;;;;6321343;22;20164;-87
2022/04/16 00:41:06;;;;;;;8.97;4.13;;;;;;;;;;6301473;22;20156;-87
2022/04/16 00:44:13;;;;;;;7.83;4.27;;;;;;;;;;6302559;22;20168;-86
2022/04/16 00:47:18;;;;;;;8.03;4.20;;;;;;;;;;6319516;22;20181;-87
2022/04/16 00:50:23;;;;;;;7.20;3.93;;;;;;;;;;6301928;22;20189;-88
2022/04/16 00:53:28;;;;;;;7.60;3.90;;;;;;;;;;6320861;22;20165;-86
2022/04/16 00:56:33;;;;;;;6.90;3.50;;;;;;;;;;6319054;22;20166;-87
2022/04/16 00:59:40;;;;;;;7.13;4.00;;;;;;;;;;6318048;22;20161;-86
2022/04/16 01:02:46;;;;;;;7.30;4.00;;;;;;;;;;6318594;22;20164;-87
2022/04/16 01:05:52;;;;;;;6.87;3.83;;;;;;;;;;6319197;22;20193;-88
2022/04/16 01:08:57;;;;;;;8.00;3.70;;;;;;;;;;6321290;22;20604;-88
2022/04/16 01:12:03;;;;;;;7.53;4.10;;;;;;;;;;6322305;22;20276;-87
2022/04/16 01:15:11;;;;;;;8.30;3.70;;;;;;;;;;6321115;22;20237;-86
2022/04/16 01:18:20;;;;;;;6.97;4.00;;;;;;;;;;6321968;22;20154;-84
2022/04/16 01:21:25;;;;;;;5.83;3.60;;;;;;;;;;6322944;22;20173;-89
2022/04/16 01:24:34;;;;;;;6.53;3.57;;;;;;;;;;6324058;22;20169;-87
2022/04/16 01:27:43;;;;;;;7.20;3.77;;;;;;;;;;6324296;22;20173;-88
2022/04/16 01:30:48;;;;;;;8.53;3.93;;;;;;;;;;6322333;22;20647;-88
2022/04/16 01:33:54;;;;;;;8.10;3.60;;;;;;;;;;6323201;22;20144;-87
2022/04/16 01:37:01;;;;;;;6.20;3.80;;;;;;;;;;6305760;22;20161;-86
2022/04/16 01:40:09;;;;;;;6.10;3.70;;;;;;;;;;6323260;22;20165;-89
2022/04/16 01:43:14;;;;;;;7.33;3.70;;;;;;;;;;6321678;22;20164;-87
2022/04/16 01:46:20;;;;;;;6.13;3.83;;;;;;;;;;6321360;22;20271;-89
2022/04/16 01:49:26;;;;;;;6.70;3.50;;;;;;;;;;6301040;22;20180;-90
2022/04/16 01:52:32;;;;;;;7.33;3.93;;;;;;;;;;6320453;22;20169;-88
2022/04/16 01:55:39;;;;;;;6.33;3.73;;;;;;;;;;6303332;22;20176;-89
2022/04/16 01:58:45;;;;;;;7.93;3.90;;;;;;;;;;6320179;22;20308;-87
2022/04/16 02:01:51;;;;;;;7.23;4.13;;;;;;;;;;6319993;22;20207;-87
2022/04/16 02:04:56;;;;;;;7.67;4.30;;;;;;;;;;6316702;22;20169;-86
2022/04/16 02:08:02;;;;;;;7.33;4.03;;;;;;;;;;6320772;22;20170;-87
2022/04/16 02:11:09;;;;;;;6.40;3.90;;;;;;;;;;6320283;22;20161;-89
2022/04/16 02:14:14;;;;;;;6.63;3.87;;;;;;;;;;6303352;22;20165;-88
2022/04/16 02:17:36;;;;;;;5.27;3.60;;;;;;;;;;6319768;22;20494;-87
2022/04/16 02:20:44;;;;;;;6.07;3.90;;;;;;;;;;6298726;22;20177;-86
2022/04/16 02:23:51;;;;;;;5.23;3.50;;;;;;;;;;6303873;22;20144;-88
2022/04/16 02:26:58;;;;;;;6.43;3.80;;;;;;;;;;6302427;22;20197;-87
2022/04/16 02:30:03;;;;;;;7.57;4.10;;;;;;;;;;6322075;22;20162;-88
2022/04/16 02:33:10;;;;;;;7.97;4.00;;;;;;;;;;6319968;22;20167;-87
2022/04/16 02:36:16;;;;;;;6.50;4.00;;;;;;;;;;6302291;22;20153;-87
2022/04/16 02:39:21;;;;;;;7.07;3.93;;;;;;;;;;6321333;22;20157;-88
2022/04/16 02:42:28;;;;;;;9.80;4.13;;;;;;;;;;6322454;22;20173;-89
2022/04/16 02:48:57;;;;;;;6.97;3.63;;;;;;;;;;6319282;22;20212;-85
2022/04/16 02:52:02;;;;;;;7.40;4.10;;;;;;;;;;6303779;22;20157;-87
2022/04/16 02:55:08;;;;;;;8.93;4.03;;;;;;;;;;6320904;22;20166;-89
2022/04/16 02:58:17;;;;;;;6.07;4.00;;;;;;;;;;6321793;22;20596;-90
2022/04/16 03:01:23;;;;;;;6.20;4.20;;;;;;;;;;6321604;22;20208;-91
2022/04/16 03:04:28;;;;;;;8.67;3.77;;;;;;;;;;6321059;22;20157;-88
2022/04/16 03:07:33;;;;;;;7.77;4.30;;;;;;;;;;6320694;22;20180;-88
2022/04/16 03:10:38;;;;;;;5.83;4.00;;;;;;;;;;6302537;22;20165;-86
2022/04/16 03:13:47;;;;;;;7.13;4.40;;;;;;;;;;6303701;22;20221;-87
2022/04/16 03:20:20;;;;;;;7.93;4.27;;;;;;;;;;6321570;22;20239;-87
2022/04/16 03:23:25;;;;;;;6.43;4.30;;;;;;;;;;6304072;22;20208;-90
2022/04/16 03:26:30;;;;;;;7.33;4.50;;;;;;;;;;6321606;22;20299;-87
2022/04/16 03:29:37;;;;;;;6.73;4.13;;;;;;;;;;6321941;22;20727;-86
2022/04/16 03:32:43;;;;;;;6.93;4.20;;;;;;;;;;6322632;22;20165;-88
2022/04/16 03:35:51;;;;;;;5.97;3.87;;;;;;;;;;6320848;22;20173;-86
2022/04/16 03:38:56;;;;;;;8.00;4.13;;;;;;;;;;6322076;22;20213;-88
2022/04/16 03:42:04;;;;;;;7.33;4.30;;;;;;;;;;6321746;22;20165;-89
2022/04/16 03:45:11;;;;;;;7.23;4.17;;;;;;;;;;6322733;22;20169;-86
2022/04/16 03:48:16;;;;;;;8.13;4.23;;;;;;;;;;6322993;22;20314;-90
2022/04/16 03:51:21;;;;;;;6.53;3.77;;;;;;;;;;6321388;22;20165;-88
2022/04/16 04:01:18;;;;;;;7.67;4.03;;;;;;;;;;6243600;22;20184;-90
2022/04/16 04:04:23;;;;;;;6.47;4.13;;;;;;;;;;6323945;22;20165;-87
2022/04/16 04:07:28;;;;;;;5.93;3.60;;;;;;;;;;6320859;22;20196;-87
2022/04/16 04:10:33;;;;;;;11.57;4.50;;;;;;;;;;6304423;22;20161;-90
2022/04/16 04:13:38;;;;;;;6.60;3.93;;;;;;;;;;6323290;22;20161;-88
2022/04/16 04:16:46;;;;;;;6.67;4.27;;;;;;;;;;6322154;22;20296;-88
2022/04/16 04:19:51;;;;;;;7.07;3.83;;;;;;;;;;6301161;22;20168;-87
2022/04/16 04:22:57;;;;;;;8.03;4.40;;;;;;;;;;6320024;22;20212;-88
2022/04/16 04:26:03;;;;;;;6.30;3.60;;;;;;;;;;6301975;22;20188;-88
2022/04/16 04:29:09;;;;;;;6.37;3.70;;;;;;;;;;6319379;22;20208;-88
2022/04/16 04:32:16;;;;;;;7.73;4.30;;;;;;;;;;6302282;22;20164;-88
2022/04/16 04:35:21;;;;;;;7.17;4.33;;;;;;;;;;6321138;22;20215;-87
2022/04/16 04:38:26;;;;;;;9.73;4.13;;;;;;;;;;6302020;22;20165;-86
2022/04/16 04:41:31;;;;;;;7.07;4.17;;;;;;;;;;6320540;22;20169;-88
2022/04/16 04:44:36;;;;;;;5.80;3.90;;;;;;;;;;6322481;22;20169;-88
2022/04/16 04:47:43;;;;;;;8.00;4.63;;;;;;;;;;6320848;22;20193;-87
2022/04/16 04:50:49;;;;;;;5.77;3.97;;;;;;;;;;6321102;22;20185;-88
2022/04/16 04:53:54;;;;;;;7.03;4.23;;;;;;;;;;6321011;22;20684;-87
2022/04/16 04:56:59;;;;;;;6.33;3.87;;;;;;;;;;6319272;22;20157;-88
2022/04/16 05:00:05;;;;;;;7.73;3.83;;;;;;;;;;6319173;22;20169;-88
2022/04/16 05:03:13;;;;;;;9.47;3.43;;;;;;;;;;6318814;22;20173;-88
2022/04/16 05:06:18;;;;;;;6.43;3.73;;;;;;;;;;6319610;22;20224;-89
2022/04/16 05:09:23;;;;;;;7.00;4.20;;;;;;;;;;6302173;22;20170;-87
2022/04/16 05:12:28;;;;;;;6.93;3.80;;;;;;;;;;6300979;22;20169;-88
2022/04/16 05:15:33;;;;;;;8.27;3.90;;;;;;;;;;6317984;22;20164;-89
2022/04/16 05:18:40;;;;;;;8.30;3.93;;;;;;;;;;6319884;22;20172;-88
2022/04/16 05:21:45;;;;;;;5.50;3.80;;;;;;;;;;6322189;22;20220;-88
2022/04/16 05:24:50;;;;;;;13.23;4.70;;;;;;;;;;6319353;22;20237;-87
2022/04/16 05:27:56;;;;;;;6.83;4.00;;;;;;;;;;6319550;22;20602;-87
2022/04/16 05:31:01;;;;;;;7.03;4.03;;;;;;;;;;6300428;22;20616;-88
2022/04/16 05:34:20;;;;;;;6.97;4.03;;;;;;;;;;6301835;22;20141;-87
2022/04/16 05:37:25;;;;;;;6.33;3.87;;;;;;;;;;6302719;22;20215;-89
2022/04/16 05:40:29;;;;;;;8.50;4.60;;;;;;;;;;6320448;22;20185;-88
2022/04/16 05:43:35;;;;;;;9.73;4.47;;;;;;;;;;6319642;22;20477;-86
2022/04/16 05:46:40;;;;;;;6.57;4.17;;;;;;;;;;6317977;22;20201;-88
2022/04/16 05:49:47;;;;;;;6.60;4.20;;;;;;;;;;6318500;22;20236;-87
2022/04/16 05:52:53;;;;;;;12.67;4.47;;;;;;;;;;6319426;22;20742;-88
2022/04/16 05:55:57;;;;;;;12.97;4.40;;;;;;;;;;6319802;22;20612;-87
2022/04/16 05:59:03;;;;;;;10.57;4.40;;;;;;;;;;6320507;22;20164;-90
2022/04/16 06:02:10;;;;;;;10.83;4.70;;;;;;;;;;6317812;22;20153;-87
2022/04/16 06:05:17;;;;;;;7.55;4.30;;;;;;;;;;6318210;22;20149;-88
2022/04/16 06:08:22;;;;;;;8.20;4.10;;;;;;;;;;6320408;22;20246;-89
2022/04/16 06:11:28;;;;;;;9.10;3.80;;;;;;;;;;6320597;22;20165;-89
2022/04/16 06:14:36;;;;;;;7.78;4.25;;;;;;;;;;6319227;22;20188;-86
2022/04/16 06:17:41;;;;;;;7.13;4.30;;;;;;;;;;6319112;22;20173;-87
2022/04/16 06:20:48;;;;;;;7.65;4.53;;;;;;;;;;6321805;22;20169;-88
2022/04/16 06:23:53;;;;;;;6.65;4.03;;;;;;;;;;6321141;22;20173;-88
2022/04/16 06:26:58;;;;;;;7.53;4.40;;;;;;;;;;6320456;22;20532;-88
2022/04/16 06:30:08;;;;;;;6.38;3.95;;;;;;;;;;6318715;22;20675;-87
2022/04/16 06:33:14;;;;;;;7.55;4.00;;;;;;;;;;6324481;22;20251;-90
2022/04/16 06:36:20;;;;;;;8.63;4.15;;;;;;;;;;6319271;22;20171;-88
2022/04/16 06:39:26;;;;;;;7.22;4.60;;;;;;;;;;6323041;22;20168;-88
2022/04/16 06:42:30;;;;;;;5.25;3.35;;;;;;;;;;6320464;22;20208;-90
2022/04/16 06:45:35;;;;;;;6.45;4.18;;;;;;;;;;6301539;22;20212;-85
2022/04/16 06:48:41;;;;;;;6.80;3.53;;;;;;;;;;6320542;22;20157;-89
2022/04/16 06:51:49;;;;;;;7.32;3.72;;;;;;;;;;6300321;22;20160;-88
2022/04/16 06:54:54;;;;;;;5.13;3.30;;;;;;;;;;6318513;22;20172;-89
2022/04/16 06:58:01;;;;;;;7.32;2.88;;;;;;;;;;6321040;22;20241;-88
2022/04/16 07:01:06;;;;;;;4.32;2.58;;;;;;;;;;6318971;22;20215;-88
2022/04/16 07:04:12;;;;;;;4.60;3.03;;;;;;;;;;6319430;22;20164;-89
2022/04/16 07:07:18;;;;;;;2.90;2.28;;;;;;;;;;6320242;22;20267;-90
2022/04/16 07:10:23;;;;;;;3.65;2.67;;;;;;;;;;6302734;22;20284;-89
2022/04/16 07:13:28;;;;;;;3.88;2.58;;;;;;;;;;6320580;22;20631;-88
2022/04/16 07:16:34;;;;;;;4.17;2.50;;;;;;;;;;6302739;22;20165;-88
2022/04/16 07:19:39;;;;;;;4.00;3.05;;;;;;;;;;6323604;22;20160;-89
2022/04/16 07:22:45;;;;;;;5.63;2.73;;;;;;;;;;6321264;22;20152;-88
2022/04/16 07:25:51;;;;;;;9.53;3.00;;;;;;;;;;6323739;22;20219;-89
2022/04/16 07:28:57;;;;;;;4.53;2.70;;;;;;;;;;6321706;22;20172;-88
2022/04/16 07:32:07;;;;;;;5.45;3.03;;;;;;;;;;6312194;22;20169;-89
2022/04/16 07:35:12;;;;;;;6.10;3.03;;;;;;;;;;6305397;22;20165;-88
2022/04/16 07:38:21;;;;;;;5.93;2.83;;;;;;;;;;6320430;22;20261;-89
2022/04/16 07:41:26;;;;;;;8.02;2.97;;;;;;;;;;6321422;22;20225;-88
2022/04/16 07:44:33;;;;;;;4.50;2.80;;;;;;;;;;6322151;22;20169;-89
2022/04/16 07:47:38;;;;;;;4.30;2.87;;;;;;;;;;6302780;22;20195;-88
2022/04/16 07:50:45;;;;;;;4.80;2.40;;;;;;;;;;6327468;22;20270;-87
2022/04/16 07:53:53;;;;;;;5.70;2.90;;;;;;;;;;6325384;22;20671;-87
2022/04/16 07:56:58;;;;;;;5.53;3.00;;;;;;;;;;6305461;22;20208;-87
2022/04/16 08:00:04;;;;;;;5.50;3.13;;;;;;;;;;6322379;22;20161;-90
2022/04/16 08:03:17;;;;;;;5.25;3.13;;;;;;;;;;6325403;22;20152;-89
2022/04/16 08:06:22;;;;;;;5.68;3.30;;;;;;;;;;6321152;22;20184;-88
2022/04/16 08:09:29;;;;;;;5.35;3.00;;;;;;;;;;6320152;22;20214;-88
2022/04/16 08:12:35;;;;;;;5.57;2.65;;;;;;;;;;6320598;22;20168;-89
2022/04/16 08:15:40;;;;;;;4.95;2.55;;;;;;;;;;6303265;22;20204;-90
2022/04/16 08:18:46;;;;;;;6.13;2.63;;;;;;;;;;6321718;22;20168;-88
2022/04/16 08:21:53;;;;;;;6.78;3.13;;;;;;;;;;6322028;22;20219;-87
2022/04/16 08:28:18;;;;;;;4.97;2.58;;;;;;;;;;6305682;22;20192;-88
2022/04/16 08:31:24;;;;;;;4.63;2.83;;;;;;;;;;6323983;22;20172;-88
2022/04/16 08:37:50;;;;;;;6.95;2.42;;;;;;;;;;6304584;22;20162;-87
2022/04/16 08:40:57;;;;;;;4.03;2.25;;;;;;;;;;6322003;22;20169;-89
2022/04/16 08:44:03;;;;;;;4.88;2.15;;;;;;;;;;6306345;22;20173;-88
2022/04/16 08:47:08;;;;;;;5.60;2.45;;;;;;;;;;6328439;22;20217;-88
2022/04/16 08:50:15;;;;;;;4.15;2.35;;;;;;;;;;6325177;22;20234;-88
2022/04/16 08:53:21;;;;;;;3.92;1.90;;;;;;;;;;6324732;22;20161;-89
2022/04/16 08:56:28;;;;;;;3.90;1.90;;;;;;;;;;6321041;22;20221;-88
2022/04/16 08:59:33;;;;;;;4.87;1.77;;;;;;;;;;6326057;22;20223;-89
2022/04/16 09:02:40;;;;;;;2.77;1.70;;;;;;;;;;6323597;22;20166;-87
2022/04/16 09:09:11;;;;;;;4.72;2.03;;;;;;;;;;6327233;22;20187;-89
2022/04/16 09:12:20;;;;;;;4.70;2.05;;;;;;;;;;6307519;22;20169;-90
2022/04/16 09:15:27;;;;;;;2.13;1.40;;;;;;;;;;6303921;22;20173;-90
2022/04/16 09:18:33;;;;;;;2.70;1.73;;;;;;;;;;6322177;22;20188;-88
2022/04/16 09:21:38;;;;;;;2.90;1.80;;;;;;;;;;6321004;22;20164;-89
2022/04/16 09:24:47;;;;;;;2.38;1.42;;;;;;;;;;6324037;22;20169;-86
2022/04/16 09:27:55;;;;;;;3.70;1.63;;;;;;;;;;6320224;22;20193;-87
2022/04/16 09:31:02;;;;;;;2.93;1.57;;;;;;;;;;6317684;22;20287;-87
2022/04/16 09:34:08;;;;;;;4.07;2.17;;;;;;;;;;6318565;22;20218;-88
2022/04/16 09:37:13;;;;;;;2.73;1.50;;;;;;;;;;6303218;22;20204;-89
2022/04/16 09:40:21;;;;;;;5.75;1.80;;;;;;;;;;6300679;22;20161;-86
2022/04/16 09:43:37;;;;;;;3.90;1.65;;;;;;;;;;6320987;22;20235;-86
2022/04/16 09:46:46;;;;;;;3.65;1.98;;;;;;;;;;6319581;22;20174;-88
2022/04/16 09:49:54;;;;;;;5.05;1.67;;;;;;;;;;6318196;22;20212;-88
2022/04/16 09:53:00;;;;;;;3.53;1.70;;;;;;;;;;6319978;22;20169;-84
2022/04/16 09:56:08;;;;;;;3.55;1.80;;;;;;;;;;6302437;22;20168;-86
2022/04/16 09:59:15;;;;;;;7.25;2.47;;;;;;;;;;6321131;22;20217;-86
2022/04/16 10:02:21;;;;;;;2.40;1.63;;;;;;;;;;6301091;22;20193;-87
2022/04/16 10:05:26;;;;;;;3.15;1.70;;;;;;;;;;6322746;22;20218;-89
2022/04/16 10:08:34;;;;;;;3.33;1.88;;;;;;;;;;6303104;22;20239;-88
2022/04/16 10:15:07;;;;;;;1.77;1.13;;;;;;;;;;6319892;22;20161;-88
2022/04/16 10:18:13;;;;;;;2.00;1.30;;;;;;;;;;6319989;22;20173;-87
2022/04/16 10:21:19;;;;;;;2.75;1.40;;;;;;;;;;6306573;22;20168;-88
2022/04/16 10:24:28;;;;;;;1.85;1.02;;;;;;;;;;6303616;22;20168;-87
2022/04/16 10:27:34;;;;;;;2.05;1.27;;;;;;;;;;6306402;22;20244;-87
2022/04/16 10:30:44;;;;;;;1.73;1.17;;;;;;;;;;6320416;22;20169;-87
2022/04/16 10:34:01;;;;;;;2.10;1.10;;;;;;;;;;6321177;22;20168;-87
2022/04/16 10:37:08;;;;;;;3.25;1.55;;;;;;;;;;6320599;22;20189;-87
2022/04/16 10:40:20;;;;;;;2.42;1.40;;;;;;;;;;6320630;22;20161;-87
2022/04/16 10:43:27;;;;;;;4.40;1.70;;;;;;;;;;6319704;22;20157;-86
2022/04/16 10:46:44;;;;;;;3.20;1.60;;;;;;;;;;6319875;22;20169;-86
2022/04/16 10:49:49;;;;;;;3.42;1.80;;;;;;;;;;6300536;22;20203;-84
2022/04/16 10:52:55;;;;;;;2.42;1.63;;;;;;;;;;6302274;22;20168;-86
2022/04/16 10:56:16;;;;;;;3.65;1.45;;;;;;;;;;6321938;22;20222;-87
2022/04/16 10:59:36;;;;;;;2.38;1.48;;;;;;;;;;6302548;22;20169;-88
2022/04/16 11:02:43;;;;;;;4.30;2.15;;;;;;;;;;6315893;22;20216;-87
2022/04/16 11:05:49;;;;;;;4.65;1.90;;;;;;;;;;6319422;22;20169;-87
2022/04/16 11:09:00;;;;;;;3.05;1.80;;;;;;;;;;6318377;22;20655;-87
2022/04/16 11:12:07;;;;;;;3.00;1.98;;;;;;;;;;6300906;22;20219;-87
2022/04/16 11:15:18;;;;;;;3.15;2.03;;;;;;;;;;6317686;22;20219;-86
2022/04/16 11:18:28;;;;;;;2.95;2.05;;;;;;;;;;6315413;22;20184;-88
2022/04/16 11:21:32;;;;;;;4.55;2.47;;;;;;;;;;6299776;22;20169;-89
2022/04/16 11:24:37;;;;;;;3.47;2.15;;;;;;;;;;6299174;22;20168;-89
2022/04/16 11:34:41;;;;;;;6.93;2.88;;;;;;;;;;6320049;22;20164;-87
2022/04/16 11:37:53;;;;;;;4.95;3.30;;;;;;;;;;6318906;22;20203;-89
2022/04/16 11:40:59;;;;;;;5.15;2.97;;;;;;;;;;6319304;22;20173;-86
2022/04/16 11:44:05;;;;;;;4.88;3.08;;;;;;;;;;6318619;22;20612;-88
2022/04/16 11:47:12;;;;;;;5.88;3.10;;;;;;;;;;6321922;22;20206;-86
2022/04/16 11:50:19;;;;;;;5.13;2.80;;;;;;;;;;6321274;22;20200;-88
2022/04/16 11:53:25;;;;;;;6.22;3.60;;;;;;;;;;6325780;22;20169;-87
2022/04/16 11:56:30;;;;;;;5.72;3.20;;;;;;;;;;6302598;22;20177;-88
2022/04/16 11:59:40;;;;;;;5.07;3.00;;;;;;;;;;6319514;22;20195;-87
2022/04/16 12:02:47;;;;;;;4.18;3.13;;;;;;;;;;6300088;22;20287;-87
2022/04/16 12:05:54;;;;;;;6.05;3.70;;;;;;;;;;6301072;22;20184;-85
2022/04/16 12:09:00;;;;;;;6.90;4.05;;;;;;;;;;6298849;22;20235;-87
2022/04/16 12:12:06;;;;;;;7.78;4.05;;;;;;;;;;6300786;22;20288;-87
2022/04/16 12:15:11;;;;;;;7.22;4.07;;;;;;;;;;6300003;22;20612;-88
2022/04/16 12:18:22;;;;;;;8.77;4.60;;;;;;;;;;6317698;22;20165;-85
2022/04/16 12:21:29;;;;;;;10.13;4.90;;;;;;;;;;6317794;22;20212;-87
2022/04/16 12:24:34;;;;;;;10.70;4.70;;;;;;;;;;6301196;22;20164;-87
2022/04/16 12:27:44;;;;;;;7.55;4.60;;;;;;;;;;6315595;22;20235;-87
2022/04/16 12:30:50;;;;;;;8.98;3.63;;;;;;;;;;6315834;22;20165;-88
2022/04/16 12:34:01;;;;;;;8.00;4.72;;;;;;;;;;6319479;22;20161;-88
2022/04/16 12:37:07;;;;;;;9.10;4.97;;;;;;;;;;6298611;22;20196;-88
2022/04/16 12:40:12;;;;;;;7.97;4.65;;;;;;;;;;6298599;22;20165;-86
2022/04/16 12:43:17;;;;;;;10.93;5.40;;;;;;;;;;6299191;22;20171;-86
2022/04/16 12:46:22;;;;;;;6.93;4.38;;;;;;;;;;6315374;22;20594;-86
2022/04/16 12:49:27;;;;;;;7.40;4.57;;;;;;;;;;6315480;22;20216;-86
2022/04/16 12:52:34;;;;;;;6.88;3.90;;;;;;;;;;6315379;22;20503;-87
2022/04/16 12:55:39;;;;;;;5.60;3.80;;;;;;;;;;6299127;22;20216;-87
2022/04/16 12:58:44;;;;;;;8.43;4.15;;;;;;;;;;6297989;22;20161;-88
2022/04/16 13:01:49;;;;;;;5.85;3.65;;;;;;;;;;6298664;22;20176;-87
2022/04/16 13:04:54;;;;;;;6.43;2.92;;;;;;;;;;6300559;22;20177;-87
2022/04/16 13:08:01;;;;;;;7.85;3.92;;;;;;;;;;6317037;22;20192;-87
2022/04/16 13:11:09;;;;;;;6.38;3.47;;;;;;;;;;6300145;22;20157;-88
2022/04/16 13:14:17;;;;;;;6.38;3.60;;;;;;;;;;6302337;22;20208;-87
2022/04/16 13:17:23;;;;;;;5.40;3.45;;;;;;;;;;6301093;22;20169;-87
2022/04/16 13:20:33;;;;;;;6.07;3.40;;;;;;;;;;6319712;22;20173;-88
2022/04/16 13:23:39;;;;;;;7.40;3.00;;;;;;;;;;6299128;22;20181;-88
2022/04/16 13:26:44;;;;;;;5.63;2.80;;;;;;;;;;6301317;22;20149;-87
2022/04/16 13:29:50;;;;;;;4.32;2.90;;;;;;;;;;6319812;22;20196;-88
2022/04/16 13:32:55;;;;;;;4.07;2.80;;;;;;;;;;6317845;22;20166;-88
2022/04/16 13:36:02;;;;;;;5.50;2.67;;;;;;;;;;6299665;22;20168;-87
2022/04/16 13:41:38;;;;;;;6.43;2.53;;;;;;;;;;6302626;22;20204;-89
2022/04/16 13:42:34;;;;;;;5.50;2.60;;;;;;;;;;6320415;22;20176;-88
2022/04/16 13:45:41;;;;;;;5.28;2.50;;;;;;;;;;6302001;22;20187;-88
2022/04/16 13:48:46;;;;;;;6.32;4.13;;;;;;;;;;6301543;22;20640;-85
2022/04/16 13:51:52;;;;;;;3.60;2.60;;;;;;;;;;6319317;22;20169;-86
2022/04/16 13:54:58;;;;;;;4.47;2.30;;;;;;;;;;6299366;22;20187;-86
2022/04/16 13:58:03;;;;;;;5.75;2.65;;;;;;;;;;6299747;22;20207;-85
2022/04/16 14:01:09;;;;;;;2.95;2.20;;;;;;;;;;6319258;22;20188;-87
2022/04/16 14:04:14;;;;;;;5.15;2.42;;;;;;;;;;6300646;22;20181;-88
2022/04/16 14:07:19;;;;;;;5.03;2.40;;;;;;;;;;6317789;22;20165;-87
2022/04/16 14:10:27;;;;;;;5.32;2.28;;;;;;;;;;6299337;22;20235;-87
2022/04/16 14:13:33;;;;;;;4.63;2.50;;;;;;;;;;6298162;22;20164;-87
2022/04/16 14:16:39;;;;;;;3.08;2.13;;;;;;;;;;6316255;22;20181;-87
2022/04/16 14:19:45;;;;;;;5.05;2.60;;;;;;;;;;6299724;22;20231;-87
2022/04/16 14:22:50;;;;;;;4.55;2.42;;;;;;;;;;6319042;22;20170;-88
2022/04/16 14:25:56;;;;;;;6.35;2.72;;;;;;;;;;6317930;22;20228;-88
2022/04/16 14:29:01;;;;;;;6.13;2.75;;;;;;;;;;6317401;22;20189;-87
2022/04/16 14:32:06;;;;;;;3.47;2.20;;;;;;;;;;6300609;22;20148;-86
2022/04/16 14:35:11;;;;;;;1.95;1.48;;;;;;;;;;6319360;22;20169;-88
2022/04/16 14:38:18;;;;;;;5.80;2.90;;;;;;;;;;6320479;22;20165;-87
2022/04/16 14:41:25;;;;;;;2.28;1.75;;;;;;;;;;6301077;22;20153;-88
2022/04/16 14:44:31;;;;;;;2.92;2.08;;;;;;;;;;6282795;22;20513;-87
2022/04/16 14:47:37;;;;;;;3.90;2.30;;;;;;;;;;6301186;22;20165;-89
2022/04/16 14:50:42;;;;;;;5.40;2.30;;;;;;;;;;6300864;22;20262;-89
2022/04/16 14:53:47;;;;;;;3.28;1.83;;;;;;;;;;6299520;22;20165;-87
2022/04/16 14:56:54;;;;;;;4.60;1.98;;;;;;;;;;6318849;22;20224;-86
2022/04/16 14:59:58;;;;;;;4.05;2.10;;;;;;;;;;6320159;22;20161;-88
2022/04/16 15:03:03;;;;;;;3.30;2.00;;;;;;;;;;6316291;22;20165;-88
2022/04/16 15:06:09;;;;;;;2.63;1.52;;;;;;;;;;6318620;22;20169;-86
2022/04/16 15:09:14;;;;;;;3.75;1.92;;;;;;;;;;6302853;22;20566;-87
2022/04/16 15:12:21;;;;;;;2.70;1.42;;;;;;;;;;6319350;22;20275;-88
2022/04/16 15:15:26;;;;;;;2.58;1.70;;;;;;;;;;6300681;22;20173;-87
2022/04/16 15:18:39;;;;;;;2.72;1.40;;;;;;;;;;6298492;22;20615;-87
2022/04/16 15:21:45;;;;;;;5.70;1.52;;;;;;;;;;6300683;22;20169;-87
2022/04/16 15:24:50;;;;;;;2.75;1.27;;;;;;;;;;6320306;22;20494;-87
2022/04/16 15:27:56;;;;;;;3.42;1.70;;;;;;;;;;6318038;22;20212;-88
2022/04/16 15:31:06;;;;;;;4.72;1.42;;;;;;;;;;6319928;22;20244;-88
2022/04/16 15:34:12;;;;;;;4.32;1.60;;;;;;;;;;6320718;22;20181;-86
2022/04/16 15:37:22;;;;;;;2.50;1.50;;;;;;;;;;6318024;22;20180;-87
2022/04/16 15:40:28;;;;;;;2.63;1.60;;;;;;;;;;6301293;22;20214;-87
2022/04/16 15:43:35;;;;;;;3.15;1.65;;;;;;;;;;6321033;22;20172;-87
2022/04/16 15:46:41;;;;;;;3.53;1.50;;;;;;;;;;6301066;22;20164;-86
2022/04/16 15:49:46;;;;;;;2.92;1.52;;;;;;;;;;6302431;22;20204;-87
2022/04/16 15:52:52;;;;;;;4.53;1.42;;;;;;;;;;6302068;22;20157;-85
2022/04/16 15:55:57;;;;;;;3.80;1.50;;;;;;;;;;6321263;22;20168;-85
2022/04/16 15:59:04;;;;;;;2.58;1.33;;;;;;;;;;6320075;22;20260;-87
2022/04/16 16:02:10;;;;;;;2.33;1.40;;;;;;;;;;6320081;22;20231;-86
2022/04/16 16:05:14;;;;;;;3.70;1.70;;;;;;;;;;6321412;22;20166;-86
2022/04/16 16:08:20;;;;;;;2.80;1.60;;;;;;;;;;6298984;22;20165;-87
2022/04/16 16:11:25;;;;;;;2.25;1.40;;;;;;;;;;6315367;22;20180;-87
2022/04/16 16:14:31;;;;;;;2.90;1.58;;;;;;;;;;6299420;22;20237;-85
2022/04/16 16:17:41;;;;;;;2.50;1.50;;;;;;;;;;6321651;22;20165;-87
2022/04/16 16:20:46;;;;;;;2.90;1.50;;;;;;;;;;6299989;22;20165;-89
2022/04/16 16:23:51;;;;;;;4.15;1.85;;;;;;;;;;6319061;22;20176;-86
2022/04/16 16:26:57;;;;;;;3.10;1.55;;;;;;;;;;6316712;22;20174;-88
2022/04/16 16:30:05;;;;;;;2.85;1.63;;;;;;;;;;6319317;22;20189;-86
2022/04/16 16:33:10;;;;;;;3.50;1.70;;;;;;;;;;6318851;22;20173;-86
2022/04/16 16:36:15;;;;;;;2.63;1.40;;;;;;;;;;6320072;22;20240;-86
2022/04/16 16:39:22;;;;;;;4.03;1.40;;;;;;;;;;6318811;22;20468;-88
2022/04/16 16:42:28;;;;;;;6.05;1.90;;;;;;;;;;6321429;22;20175;-89
2022/04/16 16:45:35;;;;;;;7.53;1.60;;;;;;;;;;6318426;22;20176;-88
2022/04/16 16:48:40;;;;;;;2.47;1.50;;;;;;;;;;6320306;22;20198;-88
2022/04/16 16:51:45;;;;;;;4.10;1.60;;;;;;;;;;6321581;22;20161;-89
2022/04/16 16:54:51;;;;;;;2.75;1.27;;;;;;;;;;6321111;22;20212;-88
2022/04/16 16:57:57;;;;;;;1.65;1.30;;;;;;;;;;6323245;22;20248;-88
2022/04/16 17:01:04;;;;;;;3.47;1.63;;;;;;;;;;6321795;22;20172;-87
2022/04/16 17:07:32;;;;;;;3.85;1.60;;;;;;;;;;6321687;22;20643;-87
2022/04/16 17:10:41;;;;;;;3.20;1.50;;;;;;;;;;6321728;22;20223;-87
2022/04/16 17:13:46;;;;;;;1.42;1.25;;;;;;;;;;6320517;22;20169;-88
2022/04/16 17:20:17;;;;;;;3.57;1.33;;;;;;;;;;6321607;22;20173;-87
2022/04/16 17:23:22;;;;;;;2.28;1.40;;;;;;;;;;6323750;22;20173;-88
2022/04/16 17:26:27;;;;;;;5.40;1.60;;;;;;;;;;6322543;22;20165;-88
2022/04/16 17:29:39;;;;;;;3.63;1.60;;;;;;;;;;6323430;22;20197;-89
2022/04/16 17:32:45;;;;;;;6.38;2.03;;;;;;;;;;6302273;22;20176;-88
2022/04/16 17:35:51;;;;;;;4.25;1.45;;;;;;;;;;6322631;22;20172;-89
2022/04/16 17:39:01;;;;;;;3.95;1.75;;;;;;;;;;6320744;22;20165;-88
2022/04/16 17:42:10;;;;;;;3.10;1.50;;;;;;;;;;6321723;22;20176;-87
2022/04/16 17:45:16;;;;;;;5.13;1.60;;;;;;;;;;6321724;22;20580;-90
2022/04/16 17:48:23;;;;;;;2.73;1.70;;;;;;;;;;6321127;22;20173;-89
2022/04/16 17:51:29;;;;;;;4.53;2.15;;;;;;;;;;6322732;22;20192;-88
2022/04/16 17:54:34;;;;;;;5.40;2.10;;;;;;;;;;6320459;22;20243;-89
2022/04/16 17:57:42;;;;;;;2.63;1.37;;;;;;;;;;6305937;22;20172;-88
2022/04/16 18:00:51;;;;;;;6.53;1.80;;;;;;;;;;6304453;22;20636;-89
2022/04/16 18:03:58;;;;;;;3.87;1.97;;;;;;;;;;6322555;22;20203;-88
2022/04/16 18:07:03;;;;;;;3.93;2.00;;;;;;;;;;6321737;22;20157;-89
2022/04/16 18:10:10;;;;;;;3.97;1.70;;;;;;;;;;6321881;22;20303;-87
2022/04/16 18:13:15;;;;;;;3.40;1.70;;;;;;;;;;6320941;22;20164;-89
2022/04/16 18:16:22;;;;;;;4.03;1.77;;;;;;;;;;6322217;22;20173;-87
2022/04/16 18:19:29;;;;;;;3.50;1.70;;;;;;;;;;6322466;22;20173;-88
2022/04/16 18:22:34;;;;;;;3.33;1.87;;;;;;;;;;6321950;22;20172;-87
2022/04/16 18:25:40;;;;;;;2.63;1.60;;;;;;;;;;6320613;22;20154;-89
2022/04/16 18:28:45;;;;;;;4.33;2.00;;;;;;;;;;6303168;22;20214;-89
2022/04/16 18:31:55;;;;;;;4.10;2.30;;;;;;;;;;6321554;22;20173;-86
2022/04/16 18:35:02;;;;;;;10.33;3.90;;;;;;;;;;6301832;22;20169;-88
2022/04/16 18:38:07;;;;;;;5.33;3.07;;;;;;;;;;6319685;22;20209;-88
2022/04/16 18:41:13;;;;;;;6.27;3.40;;;;;;;;;;6303749;22;20179;-88
2022/04/16 18:44:19;;;;;;;7.73;4.00;;;;;;;;;;6303627;22;20164;-89
2022/04/16 18:47:25;;;;;;;12.20;4.67;;;;;;;;;;6322428;22;20153;-87
2022/04/16 18:50:33;;;;;;;9.50;3.73;;;;;;;;;;6322428;22;20212;-87
2022/04/16 18:53:40;;;;;;;25.50;7.73;;;;;;;;;;6304331;22;20621;-87
2022/04/16 18:56:50;;;;;;;16.13;5.50;;;;;;;;;;6321022;22;20166;-88
2022/04/16 18:59:55;;;;;;;14.50;5.37;;;;;;;;;;6322292;22;20168;-87
2022/04/16 19:09:53;;;;;;;10.77;3.57;;;;;;;;;;6301657;22;20315;-87
2022/04/16 19:12:58;;;;;;;8.47;3.33;;;;;;;;;;6319935;22;20235;-87
2022/04/16 19:16:04;;;;;;;9.20;3.97;;;;;;;;;;6318528;22;20165;-88
2022/04/16 19:19:41;;;;;;;6.37;2.83;;;;;;;;;;6320182;22;20184;-88
2022/04/16 19:22:48;;;;;;;6.23;3.30;;;;;;;;;;6319687;22;20161;-88
2022/04/16 19:25:53;;;;;;;8.70;3.03;;;;;;;;;;6318771;22;20149;-89